Time;durP1;ratioP1;P1;durP2;ratioP2;P2;SDS_P1;SDS_P2;PMS_P1;PMS_P2;Temp;Humidity;BMP_temperature;BMP_pressure;BME280_temperature;BME280_humidity;BME280_pressure;Samples;Min_cycle;Max_cycle;Signal;HPM_P1;HPM_P2
2023/05/10 00:01:54;;;;;;;11.77;3.97;;;;;;;10.63;100.00;100875.69;31390161;28;20056;-88
2023/05/10 00:16:56;;;;;;;11.50;3.50;;;;;;;10.52;100.00;100870.34;31414477;28;20186;-82
2023/05/10 00:31:59;;;;;;;10.07;3.37;;;;;;;10.46;100.00;100867.25;31381378;28;20045;-82
2023/05/10 00:47:01;;;;;;;7.57;4.20;;;;;;;10.32;100.00;100872.81;31378768;28;20051;-85
2023/05/10 01:02:04;;;;;;;6.00;3.10;;;;;;;10.35;100.00;100854.94;31389631;28;20187;-87
2023/05/10 01:17:09;;;;;;;4.70;2.73;;;;;;;10.26;100.00;100852.66;31403696;28;20051;-87
2023/05/10 01:32:38;;;;;;;6.83;3.33;;;;;;;10.19;100.00;100844.56;31392301;28;20053;-86
2023/05/10 01:47:43;;;;;;;4.70;2.60;;;;;;;10.10;100.00;100827.94;31458203;28;20065;-82
2023/05/10 02:02:48;;;;;;;5.13;2.90;;;;;;;9.95;100.00;100826.47;31367754;28;20138;-89
2023/05/10 02:17:54;;;;;;;4.30;2.57;;;;;;;9.89;100.00;100828.84;31389740;28;20045;-83
2023/05/10 02:32:58;;;;;;;4.27;2.70;;;;;;;9.87;100.00;100831.94;31390966;28;20617;-83
2023/05/10 02:48:01;;;;;;;8.50;2.83;;;;;;;9.93;100.00;100837.72;31380028;28;20525;-83
2023/05/10 03:03:06;;;;;;;6.40;4.17;;;;;;;10.07;100.00;100834.16;31352380;28;20089;-89
2023/05/10 03:18:33;;;;;;;6.43;3.57;;;;;;;10.21;100.00;100832.16;31432290;28;20049;-83
2023/05/10 03:33:35;;;;;;;4.70;3.07;;;;;;;10.34;100.00;100848.75;31382947;28;20521;-84
2023/05/10 03:48:38;;;;;;;4.70;2.53;;;;;;;10.44;100.00;100850.59;31398420;28;20113;-83
2023/05/10 04:03:40;;;;;;;6.67;2.53;;;;;;;11.36;100.00;100854.41;31433031;28;20068;-89
2023/05/10 04:18:42;;;;;;;3.47;2.10;;;;;;;12.23;100.00;100847.53;31383219;28;20083;-89
2023/05/10 04:33:46;;;;;;;2.17;1.63;;;;;;;12.91;100.00;100839.06;31371834;28;20049;-83
2023/05/10 04:48:48;;;;;;;3.33;1.50;;;;;;;13.32;100.00;100833.25;31384431;28;20045;-85
2023/05/10 05:03:53;;;;;;;2.10;1.30;;;;;;;13.70;100.00;100825.47;31397323;28;20041;-84
2023/05/10 05:18:56;;;;;;;;;;;;;;;14.24;91.11;100819.59;31415143;28;20048;-85
2023/05/10 05:34:03;;;;;;;2.37;1.00;;;;;;;15.12;76.33;100819.34;31402099;28;19924;-90
2023/05/10 05:49:06;;;;;;;1.63;1.10;;;;;;;14.13;82.86;100830.00;31384283;28;20097;-90
2023/05/10 06:04:09;;;;;;;2.53;1.03;;;;;;;14.27;78.14;100829.69;31396836;28;20068;-84
2023/05/10 06:19:11;;;;;;;11.73;1.37;;;;;;;14.30;80.16;100813.22;31434733;28;20132;-83
2023/05/10 06:34:13;;;;;;;5.53;1.13;;;;;;;16.08;68.04;100813.88;31390261;28;20053;-88
2023/05/10 06:49:16;;;;;;;1.30;0.87;;;;;;;16.55;55.67;100813.91;31369317;28;20060;-89
2023/05/10 07:04:18;;;;;;;22.23;9.70;;;;;;;15.65;55.98;100819.88;31426481;28;20052;-86
2023/05/10 07:19:21;;;;;;;1.80;1.10;;;;;;;15.35;57.03;100813.63;31365786;28;20049;-86
2023/05/10 07:34:23;;;;;;;1.50;1.20;;;;;;;14.70;62.38;100817.75;31386545;28;20045;-84
2023/05/10 07:49:27;;;;;;;1.60;1.33;;;;;;;14.98;65.45;100806.06;31430461;28;20049;-89
2023/05/10 08:04:30;;;;;;;2.30;1.20;;;;;;;14.86;68.29;100815.00;31427466;28;20063;-89
2023/05/10 08:19:36;;;;;;;3.37;1.20;;;;;;;15.13;65.25;100801.75;31454893;28;20037;-91
2023/05/10 08:34:46;;;;;;;3.90;1.10;;;;;;;14.27;72.34;100824.22;31361202;28;20055;-90
2023/05/10 08:49:50;;;;;;;2.10;1.10;;;;;;;14.47;85.71;100805.81;31374795;28;20056;-84
2023/05/10 09:04:53;;;;;;;3.87;1.27;;;;;;;15.37;75.28;100799.53;31399535;28;20076;-81
2023/05/10 09:20:05;;;;;;;2.03;1.13;;;;;;;16.95;61.84;100789.50;31360964;28;20045;-89
2023/05/10 09:35:11;;;;;;;2.43;1.30;;;;;;;15.41;62.66;100799.44;31425544;28;20041;-84
2023/05/10 09:50:14;;;;;;;1.67;1.10;;;;;;;14.42;99.76;100800.84;31339932;23;20076;-82
2023/05/10 10:05:16;;;;;;;1.63;1.20;;;;;;;17.16;69.91;100779.75;31238017;28;20061;-79
2023/05/10 10:20:20;;;;;;;1.67;1.10;;;;;;;18.44;58.41;100763.03;31216772;28;20056;-82
2023/05/10 10:35:22;;;;;;;7.97;0.83;;;;;;;16.67;54.06;100788.50;31258013;28;20049;-80
2023/05/10 10:50:25;;;;;;;1.73;1.10;;;;;;;17.60;60.91;100755.00;31242375;28;20049;-80
2023/05/10 11:05:35;;;;;;;1.77;1.15;;;;;;;18.23;50.41;100754.47;31254807;28;20407;-85
2023/05/10 11:20:40;;;;;;;1.48;1.00;;;;;;;17.08;49.34;100753.00;31255900;28;20145;-82
2023/05/10 11:35:42;;;;;;;3.73;1.33;;;;;;;17.76;46.74;100738.31;31224269;28;20095;-84
2023/05/10 11:50:45;;;;;;;2.05;1.30;;;;;;;18.13;46.63;100733.69;31234408;28;20058;-77
2023/05/10 12:05:47;;;;;;;1.92;1.20;;;;;;;17.43;45.18;100737.22;31237351;28;20070;-82
2023/05/10 12:20:52;;;;;;;3.87;1.70;;;;;;;17.31;45.84;100725.09;31268892;28;20079;-84
2023/05/10 12:35:56;;;;;;;5.32;1.92;;;;;;;15.52;64.44;100759.63;31226177;28;20049;-83
2023/05/10 12:50:58;;;;;;;4.83;2.37;;;;;;;14.83;70.41;100769.38;31214047;28;20104;-83
2023/05/10 13:06:00;;;;;;;3.20;1.50;;;;;;;15.21;71.89;100759.34;31255299;28;20451;-76
2023/05/10 13:21:03;;;;;;;3.20;1.30;;;;;;;15.82;58.80;100746.66;31257540;28;20081;-79
2023/05/10 13:36:06;;;;;;;2.40;1.70;;;;;;;16.18;55.34;100736.09;31270390;28;20060;-79
2023/05/10 13:51:09;;;;;;;2.40;1.30;;;;;;;16.29;53.36;100752.19;31205152;28;20054;-82
2023/05/10 14:06:11;;;;;;;2.43;1.57;;;;;;;15.79;55.30;100764.72;31252031;28;20104;-77
2023/05/10 14:21:13;;;;;;;2.17;1.70;;;;;;;15.71;54.12;100763.38;31212866;28;20467;-78
2023/05/10 14:36:15;;;;;;;5.17;1.70;;;;;;;15.66;61.96;100766.66;31204769;28;20046;-78
2023/05/10 14:51:21;;;;;;;2.50;1.27;;;;;;;15.18;64.10;100765.66;31216654;28;20092;-79
2023/05/10 15:06:30;;;;;;;3.80;1.93;;;;;;;14.76;70.85;100764.88;31257370;28;20045;-78
2023/05/10 15:21:38;;;;;;;4.43;1.63;;;;;;;14.39;74.64;100766.19;31255074;28;20049;-79
2023/05/10 15:36:40;;;;;;;3.60;1.60;;;;;;;14.33;79.54;100759.69;31260975;28;20046;-80
2023/05/10 15:51:42;;;;;;;1.83;1.40;;;;;;;14.25;77.24;100755.59;31213372;28;20104;-78
2023/05/10 16:06:44;;;;;;;3.50;1.70;;;;;;;14.07;75.12;100755.25;31225153;28;20057;-78
2023/05/10 16:21:46;;;;;;;7.13;1.80;;;;;;;13.95;76.51;100762.16;31234020;28;20053;-78
2023/05/10 16:36:48;;;;;;;17.90;9.03;;;;;;;13.75;76.68;100770.41;31238670;28;21226;-78
2023/05/10 16:51:50;;;;;;;20.53;8.07;;;;;;;13.50;76.08;100770.16;31141703;28;20049;-79
2023/05/10 17:06:52;;;;;;;10.93;5.47;;;;;;;13.43;75.21;100773.81;31245567;28;20080;-79
2023/05/10 17:21:54;;;;;;;13.27;6.57;;;;;;;13.34;77.50;100773.63;31224447;28;20045;-80
2023/05/10 17:36:56;;;;;;;19.70;10.17;;;;;;;13.20;83.21;100785.59;31207461;28;20050;-82
2023/05/10 17:52:01;;;;;;;6.77;2.90;;;;;;;13.04;89.04;100801.03;31248669;28;20466;-84
2023/05/10 18:07:03;;;;;;;4.83;2.20;;;;;;;12.82;92.08;100811.56;31190695;28;20107;-77
2023/05/10 18:22:05;;;;;;;6.30;3.10;;;;;;;12.74;91.28;100810.94;31213268;28;20487;-76
2023/05/10 18:37:11;;;;;;;8.17;2.87;;;;;;;12.59;94.45;100815.84;31235661;28;20049;-79
2023/05/10 18:52:14;;;;;;;12.10;6.63;;;;;;;12.41;95.85;100815.38;31239440;28;20054;-80
2023/05/10 19:07:16;;;;;;;30.40;10.23;;;;;;;11.76;100.00;100814.75;31251368;28;20058;-82
2023/05/10 19:22:18;;;;;;;4.80;3.27;;;;;;;12.12;100.00;100808.81;31254687;28;20127;-83
2023/05/10 19:37:37;;;;;;;7.03;3.53;;;;;;;11.93;100.00;100815.69;31199630;28;20144;-81
2023/05/10 19:52:39;;;;;;;7.60;3.17;;;;;;;11.77;100.00;100810.84;31219523;28;20068;-83
2023/05/10 20:07:41;;;;;;;7.73;2.70;;;;;;;11.77;96.43;100808.13;31253793;28;20107;-83
2023/05/10 20:22:43;;;;;;;7.67;2.47;;;;;;;11.65;95.59;100797.75;31276356;28;20486;-82
2023/05/10 20:37:47;;;;;;;3.43;2.10;;;;;;;11.49;96.47;100789.44;31275707;28;20061;-82
2023/05/10 20:52:52;;;;;;;5.80;2.30;;;;;;;11.47;97.29;100797.22;31211763;28;20644;-76
2023/05/10 21:07:54;;;;;;;3.53;2.37;;;;;;;11.31;99.29;100795.09;31196656;28;20057;-77
2023/05/10 21:22:57;;;;;;;5.97;2.60;;;;;;;11.13;99.44;100800.69;31190282;28;20417;-78
2023/05/10 21:37:59;;;;;;;4.47;3.00;;;;;;;10.87;100.00;100809.50;31229882;28;20107;-76
2023/05/10 21:53:01;;;;;;;5.87;2.80;;;;;;;10.69;100.00;100803.47;31216144;28;20057;-80
2023/05/10 22:08:06;;;;;;;8.00;2.87;;;;;;;10.57;100.00;100794.66;31212593;28;20112;-77
2023/05/10 22:23:08;;;;;;;18.50;7.23;;;;;;;10.54;100.00;100803.59;31224762;28;20488;-78
2023/05/10 22:38:11;;;;;;;6.07;3.37;;;;;;;10.41;100.00;100807.97;31198160;28;20833;-77
2023/05/10 22:53:13;;;;;;;6.90;3.23;;;;;;;10.18;100.00;100780.59;31215068;28;20079;-76
2023/05/10 23:08:16;;;;;;;7.30;3.10;;;;;;;9.84;100.00;100800.19;31204310;28;20049;-76
2023/05/10 23:23:17;;;;;;;11.23;4.00;;;;;;;9.71;100.00;100796.38;31214690;28;20531;-76
2023/05/10 23:38:20;;;;;;;6.03;3.27;;;;;;;9.51;100.00;100795.31;31211057;28;20053;-81
2023/05/10 23:53:22;;;;;;;6.33;3.07;;;;;;;9.46;100.00;100795.72;31224233;28;20149;-81
